sensor_id;sensor_type;location;lat;lon;timestamp;P1;durP1;ratioP1;P2;durP2;ratioP2
40541;SDS011;49288;52.194;5.676;2023-09-19T00:00:56;20.47;;;4.07;;
40541;SDS011;49288;52.194;5.676;2023-09-19T00:06:00;17.08;;;3.90;;
40541;SDS011;49288;52.194;5.676;2023-09-19T00:11:03;8.20;;;3.63;;
40541;SDS011;49288;52.194;5.676;2023-09-19T00:16:09;16.73;;;4.05;;
40541;SDS011;49288;52.194;5.676;2023-09-19T00:21:17;18.33;;;4.38;;
40541;SDS011;49288;52.194;5.676;2023-09-19T00:26:21;12.02;;;3.33;;
40541;SDS011;49288;52.194;5.676;2023-09-19T00:31:24;12.82;;;3.47;;
40541;SDS011;49288;52.194;5.676;2023-09-19T00:36:28;12.60;;;3.70;;
40541;SDS011;49288;52.194;5.676;2023-09-19T00:41:32;12.80;;;3.33;;
40541;SDS011;49288;52.194;5.676;2023-09-19T00:46:37;11.32;;;3.13;;
40541;SDS011;49288;52.194;5.676;2023-09-19T00:51:40;14.27;;;2.92;;
40541;SDS011;49288;52.194;5.676;2023-09-19T00:56:47;11.20;;;2.90;;
40541;SDS011;49288;52.194;5.676;2023-09-19T01:01:52;8.15;;;2.80;;
40541;SDS011;49288;52.194;5.676;2023-09-19T01:06:56;10.35;;;3.22;;
40541;SDS011;49288;52.194;5.676;2023-09-19T01:12:01;7.97;;;2.65;;
40541;SDS011;49288;52.194;5.676;2023-09-19T01:17:09;16.77;;;3.30;;
40541;SDS011;49288;52.194;5.676;2023-09-19T01:28:06;18.05;;;3.70;;
40541;SDS011;49288;52.194;5.676;2023-09-19T01:33:18;9.40;;;2.83;;
40541;SDS011;49288;52.194;5.676;2023-09-19T01:38:21;10.70;;;3.15;;
40541;SDS011;49288;52.194;5.676;2023-09-19T01:43:27;14.38;;;3.85;;
40541;SDS011;49288;52.194;5.676;2023-09-19T01:54:12;13.30;;;3.85;;
40541;SDS011;49288;52.194;5.676;2023-09-19T01:59:23;22.50;;;4.43;;
40541;SDS011;49288;52.194;5.676;2023-09-19T02:04:29;19.45;;;3.67;;
40541;SDS011;49288;52.194;5.676;2023-09-19T02:09:32;12.68;;;4.10;;
40541;SDS011;49288;52.194;5.676;2023-09-19T02:14:37;15.23;;;4.30;;
40541;SDS011;49288;52.194;5.676;2023-09-19T02:19:40;22.40;;;4.60;;
40541;SDS011;49288;52.194;5.676;2023-09-19T02:24:43;21.40;;;4.47;;
40541;SDS011;49288;52.194;5.676;2023-09-19T02:29:46;14.05;;;3.80;;
40541;SDS011;49288;52.194;5.676;2023-09-19T02:34:50;15.73;;;3.95;;
40541;SDS011;49288;52.194;5.676;2023-09-19T02:39:54;15.38;;;3.58;;
40541;SDS011;49288;52.194;5.676;2023-09-19T02:44:57;19.45;;;3.90;;
40541;SDS011;49288;52.194;5.676;2023-09-19T02:50:01;14.70;;;3.97;;
40541;SDS011;49288;52.194;5.676;2023-09-19T02:55:04;16.80;;;3.75;;
40541;SDS011;49288;52.194;5.676;2023-09-19T03:00:11;18.10;;;4.45;;
40541;SDS011;49288;52.194;5.676;2023-09-19T03:05:14;9.38;;;3.28;;
40541;SDS011;49288;52.194;5.676;2023-09-19T03:10:18;24.63;;;3.73;;
40541;SDS011;49288;52.194;5.676;2023-09-19T03:15:22;19.75;;;3.75;;
40541;SDS011;49288;52.194;5.676;2023-09-19T03:20:27;17.75;;;3.55;;
40541;SDS011;49288;52.194;5.676;2023-09-19T03:25:29;13.73;;;3.15;;
40541;SDS011;49288;52.194;5.676;2023-09-19T03:30:32;18.35;;;3.85;;
40541;SDS011;49288;52.194;5.676;2023-09-19T03:35:39;24.58;;;4.13;;
40541;SDS011;49288;52.194;5.676;2023-09-19T03:40:43;23.88;;;3.78;;
40541;SDS011;49288;52.194;5.676;2023-09-19T03:45:46;15.60;;;3.58;;
40541;SDS011;49288;52.194;5.676;2023-09-19T03:50:49;20.52;;;4.22;;
40541;SDS011;49288;52.194;5.676;2023-09-19T03:55:53;18.13;;;3.50;;
40541;SDS011;49288;52.194;5.676;2023-09-19T04:00:57;15.60;;;3.23;;
40541;SDS011;49288;52.194;5.676;2023-09-19T04:06:02;30.65;;;4.60;;
40541;SDS011;49288;52.194;5.676;2023-09-19T04:11:05;26.40;;;3.65;;
40541;SDS011;49288;52.194;5.676;2023-09-19T04:16:08;16.65;;;2.90;;
40541;SDS011;49288;52.194;5.676;2023-09-19T04:21:11;15.47;;;3.57;;
40541;SDS011;49288;52.194;5.676;2023-09-19T04:26:14;26.50;;;3.60;;
40541;SDS011;49288;52.194;5.676;2023-09-19T04:31:19;13.65;;;3.55;;
40541;SDS011;49288;52.194;5.676;2023-09-19T04:36:24;11.82;;;2.97;;
40541;SDS011;49288;52.194;5.676;2023-09-19T04:41:37;21.40;;;3.50;;
40541;SDS011;49288;52.194;5.676;2023-09-19T04:46:43;15.10;;;3.40;;
40541;SDS011;49288;52.194;5.676;2023-09-19T04:51:45;17.15;;;3.47;;
40541;SDS011;49288;52.194;5.676;2023-09-19T04:56:49;17.77;;;3.27;;
40541;SDS011;49288;52.194;5.676;2023-09-19T05:01:52;20.52;;;4.28;;
40541;SDS011;49288;52.194;5.676;2023-09-19T05:06:55;16.15;;;3.95;;
40541;SDS011;49288;52.194;5.676;2023-09-19T05:11:58;21.10;;;3.85;;
40541;SDS011;49288;52.194;5.676;2023-09-19T05:17:01;14.98;;;3.47;;
40541;SDS011;49288;52.194;5.676;2023-09-19T05:22:06;17.80;;;3.97;;
40541;SDS011;49288;52.194;5.676;2023-09-19T05:27:09;18.50;;;3.40;;
40541;SDS011;49288;52.194;5.676;2023-09-19T05:32:12;23.17;;;3.58;;
40541;SDS011;49288;52.194;5.676;2023-09-19T05:37:15;15.50;;;3.72;;
40541;SDS011;49288;52.194;5.676;2023-09-19T05:42:18;15.75;;;3.35;;
40541;SDS011;49288;52.194;5.676;2023-09-19T05:47:21;25.27;;;4.57;;
40541;SDS011;49288;52.194;5.676;2023-09-19T05:52:25;12.55;;;3.00;;
40541;SDS011;49288;52.194;5.676;2023-09-19T05:57:27;16.73;;;3.03;;
40541;SDS011;49288;52.194;5.676;2023-09-19T06:02:31;21.88;;;3.42;;
40541;SDS011;49288;52.194;5.676;2023-09-19T06:07:36;16.40;;;3.47;;
40541;SDS011;49288;52.194;5.676;2023-09-19T06:12:39;21.98;;;3.70;;
40541;SDS011;49288;52.194;5.676;2023-09-19T06:17:44;18.95;;;3.33;;
40541;SDS011;49288;52.194;5.676;2023-09-19T06:22:49;14.45;;;4.07;;
40541;SDS011;49288;52.194;5.676;2023-09-19T06:27:52;20.65;;;4.88;;
40541;SDS011;49288;52.194;5.676;2023-09-19T06:32:59;24.48;;;3.63;;
40541;SDS011;49288;52.194;5.676;2023-09-19T06:38:03;18.38;;;3.38;;
40541;SDS011;49288;52.194;5.676;2023-09-19T06:43:06;9.73;;;3.10;;
40541;SDS011;49288;52.194;5.676;2023-09-19T06:48:09;22.75;;;3.65;;
40541;SDS011;49288;52.194;5.676;2023-09-19T06:53:12;35.08;;;4.65;;
40541;SDS011;49288;52.194;5.676;2023-09-19T06:58:15;12.68;;;2.92;;
40541;SDS011;49288;52.194;5.676;2023-09-19T07:03:18;17.80;;;3.73;;
40541;SDS011;49288;52.194;5.676;2023-09-19T07:08:23;24.48;;;3.88;;
40541;SDS011;49288;52.194;5.676;2023-09-19T07:13:27;26.63;;;4.10;;
40541;SDS011;49288;52.194;5.676;2023-09-19T07:18:30;10.77;;;3.17;;
40541;SDS011;49288;52.194;5.676;2023-09-19T07:23:36;20.63;;;3.50;;
40541;SDS011;49288;52.194;5.676;2023-09-19T07:33:43;20.75;;;4.22;;
40541;SDS011;49288;52.194;5.676;2023-09-19T07:38:47;20.90;;;4.22;;
40541;SDS011;49288;52.194;5.676;2023-09-19T07:43:50;20.67;;;3.20;;
40541;SDS011;49288;52.194;5.676;2023-09-19T07:48:53;21.58;;;3.83;;
40541;SDS011;49288;52.194;5.676;2023-09-19T07:53:56;16.60;;;3.78;;
40541;SDS011;49288;52.194;5.676;2023-09-19T07:58:59;22.95;;;3.72;;
40541;SDS011;49288;52.194;5.676;2023-09-19T08:04:01;21.65;;;3.53;;
40541;SDS011;49288;52.194;5.676;2023-09-19T08:09:04;20.88;;;4.30;;
40541;SDS011;49288;52.194;5.676;2023-09-19T08:14:11;15.25;;;3.50;;
40541;SDS011;49288;52.194;5.676;2023-09-19T08:19:16;30.17;;;4.50;;
40541;SDS011;49288;52.194;5.676;2023-09-19T08:24:19;19.75;;;3.75;;
40541;SDS011;49288;52.194;5.676;2023-09-19T08:29:23;18.98;;;4.15;;
40541;SDS011;49288;52.194;5.676;2023-09-19T08:34:30;18.58;;;3.90;;
40541;SDS011;49288;52.194;5.676;2023-09-19T08:39:36;24.23;;;4.15;;
40541;SDS011;49288;52.194;5.676;2023-09-19T08:44:39;18.27;;;4.15;;
40541;SDS011;49288;52.194;5.676;2023-09-19T08:49:53;18.48;;;4.15;;
40541;SDS011;49288;52.194;5.676;2023-09-19T08:55:01;29.95;;;4.05;;
40541;SDS011;49288;52.194;5.676;2023-09-19T09:00:07;17.50;;;3.75;;
40541;SDS011;49288;52.194;5.676;2023-09-19T09:05:12;18.38;;;3.85;;
40541;SDS011;49288;52.194;5.676;2023-09-19T09:10:16;19.48;;;4.32;;
40541;SDS011;49288;52.194;5.676;2023-09-19T09:15:19;15.13;;;3.93;;
40541;SDS011;49288;52.194;5.676;2023-09-19T09:20:25;15.70;;;4.10;;
40541;SDS011;49288;52.194;5.676;2023-09-19T09:31:05;24.30;;;4.18;;
40541;SDS011;49288;52.194;5.676;2023-09-19T09:36:11;20.45;;;3.47;;
40541;SDS011;49288;52.194;5.676;2023-09-19T09:41:16;15.32;;;3.45;;
40541;SDS011;49288;52.194;5.676;2023-09-19T09:52:02;19.50;;;4.50;;
40541;SDS011;49288;52.194;5.676;2023-09-19T09:57:13;26.15;;;3.70;;
40541;SDS011;49288;52.194;5.676;2023-09-19T10:02:17;22.10;;;3.65;;
40541;SDS011;49288;52.194;5.676;2023-09-19T10:07:41;20.17;;;3.58;;
40541;SDS011;49288;52.194;5.676;2023-09-19T10:12:51;18.88;;;3.90;;
40541;SDS011;49288;52.194;5.676;2023-09-19T10:17:59;20.52;;;3.53;;
40541;SDS011;49288;52.194;5.676;2023-09-19T10:23:05;16.08;;;3.63;;
40541;SDS011;49288;52.194;5.676;2023-09-19T10:28:13;23.73;;;3.78;;
40541;SDS011;49288;52.194;5.676;2023-09-19T10:33:18;17.70;;;4.07;;
40541;SDS011;49288;52.194;5.676;2023-09-19T10:38:25;20.95;;;3.55;;
40541;SDS011;49288;52.194;5.676;2023-09-19T10:43:30;21.83;;;4.00;;
40541;SDS011;49288;52.194;5.676;2023-09-19T10:48:38;17.20;;;3.45;;
40541;SDS011;49288;52.194;5.676;2023-09-19T10:53:45;16.17;;;3.70;;
40541;SDS011;49288;52.194;5.676;2023-09-19T10:59:09;11.75;;;3.45;;
40541;SDS011;49288;52.194;5.676;2023-09-19T11:04:20;21.02;;;3.78;;
40541;SDS011;49288;52.194;5.676;2023-09-19T11:09:54;22.50;;;4.65;;
40541;SDS011;49288;52.194;5.676;2023-09-19T11:15:00;14.85;;;3.55;;
40541;SDS011;49288;52.194;5.676;2023-09-19T11:30:43;13.45;;;3.45;;
40541;SDS011;49288;52.194;5.676;2023-09-19T11:35:59;12.02;;;3.75;;
40541;SDS011;49288;52.194;5.676;2023-09-19T11:46:22;15.82;;;3.83;;
40541;SDS011;49288;52.194;5.676;2023-09-19T11:51:26;10.43;;;3.13;;
40541;SDS011;49288;52.194;5.676;2023-09-19T11:56:29;13.45;;;3.47;;
40541;SDS011;49288;52.194;5.676;2023-09-19T12:01:34;17.63;;;3.22;;
40541;SDS011;49288;52.194;5.676;2023-09-19T12:06:37;10.43;;;3.20;;
40541;SDS011;49288;52.194;5.676;2023-09-19T12:11:46;12.98;;;3.08;;
40541;SDS011;49288;52.194;5.676;2023-09-19T12:16:54;12.45;;;3.08;;
40541;SDS011;49288;52.194;5.676;2023-09-19T12:22:02;11.70;;;3.20;;
40541;SDS011;49288;52.194;5.676;2023-09-19T12:27:08;10.35;;;2.42;;
40541;SDS011;49288;52.194;5.676;2023-09-19T12:32:11;11.27;;;2.67;;
40541;SDS011;49288;52.194;5.676;2023-09-19T12:37:15;7.57;;;2.05;;
40541;SDS011;49288;52.194;5.676;2023-09-19T12:42:23;11.15;;;2.85;;
40541;SDS011;49288;52.194;5.676;2023-09-19T12:47:30;12.35;;;2.60;;
40541;SDS011;49288;52.194;5.676;2023-09-19T12:52:37;10.05;;;2.30;;
40541;SDS011;49288;52.194;5.676;2023-09-19T12:57:40;8.05;;;2.22;;
40541;SDS011;49288;52.194;5.676;2023-09-19T13:08:28;11.82;;;3.20;;
40541;SDS011;49288;52.194;5.676;2023-09-19T13:18:50;7.60;;;2.17;;
40541;SDS011;49288;52.194;5.676;2023-09-19T13:23:55;10.23;;;2.60;;
40541;SDS011;49288;52.194;5.676;2023-09-19T13:29:01;10.40;;;2.22;;
40541;SDS011;49288;52.194;5.676;2023-09-19T13:34:04;6.85;;;2.28;;
40541;SDS011;49288;52.194;5.676;2023-09-19T13:39:07;5.70;;;2.22;;
40541;SDS011;49288;52.194;5.676;2023-09-19T13:44:11;11.32;;;2.63;;
40541;SDS011;49288;52.194;5.676;2023-09-19T13:49:14;12.20;;;2.10;;
40541;SDS011;49288;52.194;5.676;2023-09-19T13:54:17;9.35;;;2.05;;
40541;SDS011;49288;52.194;5.676;2023-09-19T13:59:23;13.25;;;2.33;;
40541;SDS011;49288;52.194;5.676;2023-09-19T14:04:26;8.33;;;2.00;;
40541;SDS011;49288;52.194;5.676;2023-09-19T14:09:31;8.68;;;2.50;;
40541;SDS011;49288;52.194;5.676;2023-09-19T14:14:33;6.13;;;1.90;;
40541;SDS011;49288;52.194;5.676;2023-09-19T14:19:36;9.60;;;2.10;;
40541;SDS011;49288;52.194;5.676;2023-09-19T14:24:40;12.60;;;2.30;;
40541;SDS011;49288;52.194;5.676;2023-09-19T14:29:44;8.10;;;2.35;;
40541;SDS011;49288;52.194;5.676;2023-09-19T14:34:47;5.43;;;2.20;;
40541;SDS011;49288;52.194;5.676;2023-09-19T14:39:50;14.00;;;2.58;;
40541;SDS011;49288;52.194;5.676;2023-09-19T14:44:53;16.80;;;2.25;;
40541;SDS011;49288;52.194;5.676;2023-09-19T14:49:57;6.22;;;2.22;;
40541;SDS011;49288;52.194;5.676;2023-09-19T14:55:00;8.33;;;2.30;;
40541;SDS011;49288;52.194;5.676;2023-09-19T15:00:04;6.72;;;1.77;;
40541;SDS011;49288;52.194;5.676;2023-09-19T15:05:10;12.05;;;2.50;;
40541;SDS011;49288;52.194;5.676;2023-09-19T15:10:13;10.85;;;2.50;;
40541;SDS011;49288;52.194;5.676;2023-09-19T15:15:16;11.23;;;2.50;;
40541;SDS011;49288;52.194;5.676;2023-09-19T15:20:19;6.25;;;2.42;;
40541;SDS011;49288;52.194;5.676;2023-09-19T15:25:22;10.65;;;2.70;;
40541;SDS011;49288;52.194;5.676;2023-09-19T15:30:25;13.70;;;2.78;;
40541;SDS011;49288;52.194;5.676;2023-09-19T15:35:28;12.93;;;3.25;;
40541;SDS011;49288;52.194;5.676;2023-09-19T15:40:31;8.70;;;2.70;;
40541;SDS011;49288;52.194;5.676;2023-09-19T15:45:34;10.73;;;2.63;;
40541;SDS011;49288;52.194;5.676;2023-09-19T15:50:37;7.90;;;2.65;;
40541;SDS011;49288;52.194;5.676;2023-09-19T15:55:39;8.55;;;2.95;;
40541;SDS011;49288;52.194;5.676;2023-09-19T16:00:43;11.98;;;3.15;;
40541;SDS011;49288;52.194;5.676;2023-09-19T16:05:46;8.30;;;2.90;;
40541;SDS011;49288;52.194;5.676;2023-09-19T16:10:49;9.25;;;2.80;;
40541;SDS011;49288;52.194;5.676;2023-09-19T16:15:51;8.60;;;2.90;;
40541;SDS011;49288;52.194;5.676;2023-09-19T16:21:00;9.32;;;2.70;;
40541;SDS011;49288;52.194;5.676;2023-09-19T16:26:05;12.65;;;3.08;;
40541;SDS011;49288;52.194;5.676;2023-09-19T16:36:12;12.15;;;3.53;;
40541;SDS011;49288;52.194;5.676;2023-09-19T16:41:16;13.07;;;3.38;;
40541;SDS011;49288;52.194;5.676;2023-09-19T16:46:21;12.88;;;2.80;;
40541;SDS011;49288;52.194;5.676;2023-09-19T16:51:24;11.45;;;3.28;;
40541;SDS011;49288;52.194;5.676;2023-09-19T16:56:27;12.02;;;2.92;;
40541;SDS011;49288;52.194;5.676;2023-09-19T17:01:30;7.30;;;2.60;;
40541;SDS011;49288;52.194;5.676;2023-09-19T17:06:35;12.60;;;3.22;;
40541;SDS011;49288;52.194;5.676;2023-09-19T17:11:38;11.03;;;3.10;;
40541;SDS011;49288;52.194;5.676;2023-09-19T17:16:41;13.50;;;3.35;;
40541;SDS011;49288;52.194;5.676;2023-09-19T17:21:44;11.32;;;3.60;;
40541;SDS011;49288;52.194;5.676;2023-09-19T17:26:47;14.52;;;3.25;;
40541;SDS011;49288;52.194;5.676;2023-09-19T17:31:50;11.85;;;3.00;;
40541;SDS011;49288;52.194;5.676;2023-09-19T17:36:53;9.13;;;3.30;;
40541;SDS011;49288;52.194;5.676;2023-09-19T17:41:56;10.65;;;3.40;;
40541;SDS011;49288;52.194;5.676;2023-09-19T17:46:59;9.02;;;3.40;;
40541;SDS011;49288;52.194;5.676;2023-09-19T17:52:03;23.65;;;3.85;;
40541;SDS011;49288;52.194;5.676;2023-09-19T17:57:06;10.30;;;3.77;;
40541;SDS011;49288;52.194;5.676;2023-09-19T18:02:10;5.03;;;2.58;;
40541;SDS011;49288;52.194;5.676;2023-09-19T18:07:13;12.50;;;3.60;;
40541;SDS011;49288;52.194;5.676;2023-09-19T18:12:16;16.02;;;3.53;;
40541;SDS011;49288;52.194;5.676;2023-09-19T18:17:19;10.88;;;3.58;;
40541;SDS011;49288;52.194;5.676;2023-09-19T18:22:23;11.32;;;3.42;;
40541;SDS011;49288;52.194;5.676;2023-09-19T18:27:26;12.45;;;3.58;;
40541;SDS011;49288;52.194;5.676;2023-09-19T18:32:32;15.75;;;4.22;;
40541;SDS011;49288;52.194;5.676;2023-09-19T18:37:35;14.93;;;3.70;;
40541;SDS011;49288;52.194;5.676;2023-09-19T18:42:38;14.43;;;3.97;;
40541;SDS011;49288;52.194;5.676;2023-09-19T18:47:43;9.43;;;3.83;;
40541;SDS011;49288;52.194;5.676;2023-09-19T18:52:46;15.20;;;4.13;;
40541;SDS011;49288;52.194;5.676;2023-09-19T18:57:51;14.07;;;4.47;;
40541;SDS011;49288;52.194;5.676;2023-09-19T19:02:56;14.65;;;4.57;;
40541;SDS011;49288;52.194;5.676;2023-09-19T19:08:02;13.38;;;4.13;;
40541;SDS011;49288;52.194;5.676;2023-09-19T19:13:05;10.20;;;4.15;;
40541;SDS011;49288;52.194;5.676;2023-09-19T19:18:08;11.07;;;4.35;;
40541;SDS011;49288;52.194;5.676;2023-09-19T19:23:11;13.93;;;4.68;;
40541;SDS011;49288;52.194;5.676;2023-09-19T19:28:14;8.38;;;3.97;;
40541;SDS011;49288;52.194;5.676;2023-09-19T19:33:17;11.00;;;4.40;;
40541;SDS011;49288;52.194;5.676;2023-09-19T19:38:23;12.82;;;4.57;;
40541;SDS011;49288;52.194;5.676;2023-09-19T19:43:28;12.32;;;4.35;;
40541;SDS011;49288;52.194;5.676;2023-09-19T19:48:31;17.00;;;4.25;;
40541;SDS011;49288;52.194;5.676;2023-09-19T19:53:34;17.02;;;5.20;;
40541;SDS011;49288;52.194;5.676;2023-09-19T19:58:36;8.93;;;3.97;;
40541;SDS011;49288;52.194;5.676;2023-09-19T20:03:40;23.48;;;3.78;;
40541;SDS011;49288;52.194;5.676;2023-09-19T20:08:45;11.57;;;3.30;;
40541;SDS011;49288;52.194;5.676;2023-09-19T20:13:48;14.13;;;4.30;;
40541;SDS011;49288;52.194;5.676;2023-09-19T20:18:51;11.55;;;4.15;;
40541;SDS011;49288;52.194;5.676;2023-09-19T20:23:55;19.10;;;4.60;;
40541;SDS011;49288;52.194;5.676;2023-09-19T20:28:57;16.75;;;4.38;;
40541;SDS011;49288;52.194;5.676;2023-09-19T20:34:01;13.85;;;3.88;;
40541;SDS011;49288;52.194;5.676;2023-09-19T20:39:04;19.05;;;4.63;;
40541;SDS011;49288;52.194;5.676;2023-09-19T20:44:08;16.08;;;3.97;;
40541;SDS011;49288;52.194;5.676;2023-09-19T20:49:12;23.17;;;6.28;;
40541;SDS011;49288;52.194;5.676;2023-09-19T20:54:15;18.23;;;4.53;;
40541;SDS011;49288;52.194;5.676;2023-09-19T20:59:19;11.17;;;4.20;;
40541;SDS011;49288;52.194;5.676;2023-09-19T21:04:21;18.73;;;4.57;;
40541;SDS011;49288;52.194;5.676;2023-09-19T21:09:24;14.80;;;4.53;;
40541;SDS011;49288;52.194;5.676;2023-09-19T21:14:27;17.77;;;5.60;;
40541;SDS011;49288;52.194;5.676;2023-09-19T21:19:32;15.90;;;4.55;;
40541;SDS011;49288;52.194;5.676;2023-09-19T21:24:36;26.00;;;5.00;;
40541;SDS011;49288;52.194;5.676;2023-09-19T21:29:39;15.47;;;4.20;;
40541;SDS011;49288;52.194;5.676;2023-09-19T21:34:42;16.63;;;4.40;;
40541;SDS011;49288;52.194;5.676;2023-09-19T21:39:45;18.85;;;5.30;;
40541;SDS011;49288;52.194;5.676;2023-09-19T21:44:50;11.90;;;4.05;;
40541;SDS011;49288;52.194;5.676;2023-09-19T21:49:53;17.30;;;4.35;;
40541;SDS011;49288;52.194;5.676;2023-09-19T21:54:56;19.88;;;5.75;;
40541;SDS011;49288;52.194;5.676;2023-09-19T21:59:59;14.27;;;5.57;;
40541;SDS011;49288;52.194;5.676;2023-09-19T22:05:12;22.95;;;4.85;;
40541;SDS011;49288;52.194;5.676;2023-09-19T22:10:15;10.55;;;3.88;;
40541;SDS011;49288;52.194;5.676;2023-09-19T22:15:18;16.50;;;5.25;;
40541;SDS011;49288;52.194;5.676;2023-09-19T22:20:25;12.23;;;4.32;;
40541;SDS011;49288;52.194;5.676;2023-09-19T22:25:31;16.67;;;4.60;;
40541;SDS011;49288;52.194;5.676;2023-09-19T22:30:39;17.20;;;4.97;;
40541;SDS011;49288;52.194;5.676;2023-09-19T22:35:49;16.20;;;5.13;;
40541;SDS011;49288;52.194;5.676;2023-09-19T22:41:05;9.00;;;4.60;;
40541;SDS011;49288;52.194;5.676;2023-09-19T22:46:13;15.35;;;5.13;;
40541;SDS011;49288;52.194;5.676;2023-09-19T22:51:16;23.60;;;5.15;;
40541;SDS011;49288;52.194;5.676;2023-09-19T22:56:25;15.88;;;5.25;;
40541;SDS011;49288;52.194;5.676;2023-09-19T23:01:30;18.10;;;4.25;;
40541;SDS011;49288;52.194;5.676;2023-09-19T23:06:39;19.52;;;5.13;;
40541;SDS011;49288;52.194;5.676;2023-09-19T23:11:43;22.92;;;5.45;;
40541;SDS011;49288;52.194;5.676;2023-09-19T23:16:46;13.07;;;5.22;;
40541;SDS011;49288;52.194;5.676;2023-09-19T23:22:03;16.20;;;4.97;;
40541;SDS011;49288;52.194;5.676;2023-09-19T23:27:08;12.77;;;4.28;;
40541;SDS011;49288;52.194;5.676;2023-09-19T23:32:14;18.40;;;4.75;;
40541;SDS011;49288;52.194;5.676;2023-09-19T23:37:18;12.25;;;4.30;;
40541;SDS011;49288;52.194;5.676;2023-09-19T23:42:22;36.75;;;4.93;;
40541;SDS011;49288;52.194;5.676;2023-09-19T23:47:25;15.68;;;5.38;;
40541;SDS011;49288;52.194;5.676;2023-09-19T23:52:28;14.05;;;4.82;;
40541;SDS011;49288;52.194;5.676;2023-09-19T23:57:31;20.08;;;5.10;;
